sensor_id;sensor_type;location;lat;lon;timestamp;P1;durP1;ratioP1;P2;durP2;ratioP2
14611;SDS011;7392;52.078;11.650;2023-04-21T00:01:52;3.40;;;3.10;;
14611;SDS011;7392;52.078;11.650;2023-04-21T00:04:20;3.03;;;2.83;;
14611;SDS011;7392;52.078;11.650;2023-04-21T00:06:49;3.00;;;2.80;;
14611;SDS011;7392;52.078;11.650;2023-04-21T00:09:18;3.23;;;2.93;;
14611;SDS011;7392;52.078;11.650;2023-04-21T00:11:48;3.00;;;2.80;;
14611;SDS011;7392;52.078;11.650;2023-04-21T00:14:16;3.23;;;2.93;;
14611;SDS011;7392;52.078;11.650;2023-04-21T00:16:44;3.27;;;2.97;;
14611;SDS011;7392;52.078;11.650;2023-04-21T00:19:13;3.00;;;2.80;;
14611;SDS011;7392;52.078;11.650;2023-04-21T00:21:41;3.13;;;2.83;;
14611;SDS011;7392;52.078;11.650;2023-04-21T00:24:09;3.33;;;2.73;;
14611;SDS011;7392;52.078;11.650;2023-04-21T00:26:36;3.37;;;3.07;;
14611;SDS011;7392;52.078;11.650;2023-04-21T00:29:04;3.37;;;3.07;;
14611;SDS011;7392;52.078;11.650;2023-04-21T00:31:32;3.30;;;3.00;;
14611;SDS011;7392;52.078;11.650;2023-04-21T00:34:00;5.67;;;3.70;;
14611;SDS011;7392;52.078;11.650;2023-04-21T00:36:29;3.00;;;2.70;;
14611;SDS011;7392;52.078;11.650;2023-04-21T00:38:57;4.27;;;3.10;;
14611;SDS011;7392;52.078;11.650;2023-04-21T00:41:26;3.67;;;3.27;;
14611;SDS011;7392;52.078;11.650;2023-04-21T00:44:01;3.73;;;3.43;;
14611;SDS011;7392;52.078;11.650;2023-04-21T00:46:30;3.50;;;3.20;;
14611;SDS011;7392;52.078;11.650;2023-04-21T00:48:58;3.53;;;3.10;;
14611;SDS011;7392;52.078;11.650;2023-04-21T00:51:28;3.50;;;3.20;;
14611;SDS011;7392;52.078;11.650;2023-04-21T00:53:59;4.33;;;3.60;;
14611;SDS011;7392;52.078;11.650;2023-04-21T00:56:30;3.60;;;3.30;;
14611;SDS011;7392;52.078;11.650;2023-04-21T00:58:59;3.50;;;3.20;;
14611;SDS011;7392;52.078;11.650;2023-04-21T01:01:28;3.83;;;3.40;;
14611;SDS011;7392;52.078;11.650;2023-04-21T01:03:58;4.50;;;4.10;;
14611;SDS011;7392;52.078;11.650;2023-04-21T01:06:30;4.50;;;3.77;;
14611;SDS011;7392;52.078;11.650;2023-04-21T01:08:58;3.80;;;3.50;;
14611;SDS011;7392;52.078;11.650;2023-04-21T01:11:26;4.07;;;3.70;;
14611;SDS011;7392;52.078;11.650;2023-04-21T01:13:54;4.17;;;3.53;;
14611;SDS011;7392;52.078;11.650;2023-04-21T01:16:22;3.60;;;3.30;;
14611;SDS011;7392;52.078;11.650;2023-04-21T01:18:52;3.93;;;3.63;;
14611;SDS011;7392;52.078;11.650;2023-04-21T01:21:20;4.20;;;3.87;;
14611;SDS011;7392;52.078;11.650;2023-04-21T01:23:50;5.00;;;4.30;;
14611;SDS011;7392;52.078;11.650;2023-04-21T01:26:18;5.97;;;4.93;;
14611;SDS011;7392;52.078;11.650;2023-04-21T01:28:48;4.67;;;4.27;;
14611;SDS011;7392;52.078;11.650;2023-04-21T01:31:16;4.97;;;4.37;;
14611;SDS011;7392;52.078;11.650;2023-04-21T01:33:46;4.03;;;3.60;;
14611;SDS011;7392;52.078;11.650;2023-04-21T01:36:14;4.60;;;4.10;;
14611;SDS011;7392;52.078;11.650;2023-04-21T01:38:43;4.13;;;3.77;;
14611;SDS011;7392;52.078;11.650;2023-04-21T01:41:12;4.07;;;3.67;;
14611;SDS011;7392;52.078;11.650;2023-04-21T01:43:40;3.77;;;3.47;;
14611;SDS011;7392;52.078;11.650;2023-04-21T01:46:07;5.00;;;4.07;;
14611;SDS011;7392;52.078;11.650;2023-04-21T01:48:36;4.00;;;3.70;;
14611;SDS011;7392;52.078;11.650;2023-04-21T01:51:04;4.87;;;4.03;;
14611;SDS011;7392;52.078;11.650;2023-04-21T01:53:32;4.10;;;3.70;;
14611;SDS011;7392;52.078;11.650;2023-04-21T01:56:00;4.30;;;3.80;;
14611;SDS011;7392;52.078;11.650;2023-04-21T01:58:30;3.83;;;3.50;;
14611;SDS011;7392;52.078;11.650;2023-04-21T02:00:58;3.50;;;3.20;;
14611;SDS011;7392;52.078;11.650;2023-04-21T02:03:26;3.47;;;3.17;;
14611;SDS011;7392;52.078;11.650;2023-04-21T02:05:54;3.37;;;3.07;;
14611;SDS011;7392;52.078;11.650;2023-04-21T02:08:22;3.70;;;3.40;;
14611;SDS011;7392;52.078;11.650;2023-04-21T02:10:50;4.13;;;3.73;;
14611;SDS011;7392;52.078;11.650;2023-04-21T02:13:17;3.30;;;3.00;;
14611;SDS011;7392;52.078;11.650;2023-04-21T02:15:47;4.03;;;3.13;;
14611;SDS011;7392;52.078;11.650;2023-04-21T02:18:18;3.13;;;2.83;;
14611;SDS011;7392;52.078;11.650;2023-04-21T02:20:47;2.80;;;2.60;;
14611;SDS011;7392;52.078;11.650;2023-04-21T02:23:15;3.60;;;3.20;;
14611;SDS011;7392;52.078;11.650;2023-04-21T02:25:42;3.40;;;3.00;;
14611;SDS011;7392;52.078;11.650;2023-04-21T02:28:11;3.40;;;2.83;;
14611;SDS011;7392;52.078;11.650;2023-04-21T02:30:38;3.50;;;2.67;;
14611;SDS011;7392;52.078;11.650;2023-04-21T02:33:09;3.27;;;2.90;;
14611;SDS011;7392;52.078;11.650;2023-04-21T02:35:37;3.07;;;2.77;;
14611;SDS011;7392;52.078;11.650;2023-04-21T02:38:04;2.60;;;2.40;;
14611;SDS011;7392;52.078;11.650;2023-04-21T02:40:34;2.70;;;2.50;;
14611;SDS011;7392;52.078;11.650;2023-04-21T02:43:01;3.03;;;2.73;;
14611;SDS011;7392;52.078;11.650;2023-04-21T02:45:30;2.80;;;2.60;;
14611;SDS011;7392;52.078;11.650;2023-04-21T02:47:57;4.90;;;2.97;;
14611;SDS011;7392;52.078;11.650;2023-04-21T02:50:27;3.30;;;3.00;;
14611;SDS011;7392;52.078;11.650;2023-04-21T02:52:55;3.23;;;2.53;;
14611;SDS011;7392;52.078;11.650;2023-04-21T02:55:22;4.27;;;2.80;;
14611;SDS011;7392;52.078;11.650;2023-04-21T02:57:50;2.63;;;2.43;;
14611;SDS011;7392;52.078;11.650;2023-04-21T03:00:21;3.00;;;2.70;;
14611;SDS011;7392;52.078;11.650;2023-04-21T03:02:49;3.20;;;2.67;;
14611;SDS011;7392;52.078;11.650;2023-04-21T03:05:18;2.83;;;2.60;;
14611;SDS011;7392;52.078;11.650;2023-04-21T03:07:48;3.23;;;2.73;;
14611;SDS011;7392;52.078;11.650;2023-04-21T03:10:17;3.00;;;2.70;;
14611;SDS011;7392;52.078;11.650;2023-04-21T03:12:46;3.13;;;2.77;;
14611;SDS011;7392;52.078;11.650;2023-04-21T03:15:14;3.27;;;2.97;;
14611;SDS011;7392;52.078;11.650;2023-04-21T03:17:42;3.03;;;2.73;;
14611;SDS011;7392;52.078;11.650;2023-04-21T03:20:10;3.27;;;2.97;;
14611;SDS011;7392;52.078;11.650;2023-04-21T03:22:38;3.20;;;2.90;;
14611;SDS011;7392;52.078;11.650;2023-04-21T03:25:15;3.10;;;2.80;;
14611;SDS011;7392;52.078;11.650;2023-04-21T03:27:43;2.93;;;2.73;;
14611;SDS011;7392;52.078;11.650;2023-04-21T03:30:11;3.07;;;2.77;;
14611;SDS011;7392;52.078;11.650;2023-04-21T03:32:39;3.20;;;2.90;;
14611;SDS011;7392;52.078;11.650;2023-04-21T03:35:07;2.50;;;2.30;;
14611;SDS011;7392;52.078;11.650;2023-04-21T03:37:35;3.00;;;2.70;;
14611;SDS011;7392;52.078;11.650;2023-04-21T03:40:03;2.67;;;2.47;;
14611;SDS011;7392;52.078;11.650;2023-04-21T03:42:33;4.03;;;3.00;;
14611;SDS011;7392;52.078;11.650;2023-04-21T03:45:02;3.03;;;2.80;;
14611;SDS011;7392;52.078;11.650;2023-04-21T03:47:32;2.43;;;2.23;;
14611;SDS011;7392;52.078;11.650;2023-04-21T03:50:02;2.80;;;2.60;;
14611;SDS011;7392;52.078;11.650;2023-04-21T03:52:31;3.20;;;2.83;;
14611;SDS011;7392;52.078;11.650;2023-04-21T03:54:59;3.07;;;2.33;;
14611;SDS011;7392;52.078;11.650;2023-04-21T03:57:28;2.90;;;2.60;;
14611;SDS011;7392;52.078;11.650;2023-04-21T03:59:57;3.27;;;2.73;;
14611;SDS011;7392;52.078;11.650;2023-04-21T04:02:25;2.73;;;2.53;;
14611;SDS011;7392;52.078;11.650;2023-04-21T04:04:53;2.90;;;2.70;;
14611;SDS011;7392;52.078;11.650;2023-04-21T04:07:21;3.00;;;2.50;;
14611;SDS011;7392;52.078;11.650;2023-04-21T04:09:49;2.90;;;2.53;;
14611;SDS011;7392;52.078;11.650;2023-04-21T04:12:16;2.47;;;2.27;;
14611;SDS011;7392;52.078;11.650;2023-04-21T04:14:44;2.57;;;2.37;;
14611;SDS011;7392;52.078;11.650;2023-04-21T04:17:13;2.77;;;2.57;;
14611;SDS011;7392;52.078;11.650;2023-04-21T04:19:41;2.83;;;2.37;;
14611;SDS011;7392;52.078;11.650;2023-04-21T04:22:08;3.13;;;2.83;;
14611;SDS011;7392;52.078;11.650;2023-04-21T04:24:36;2.67;;;2.37;;
14611;SDS011;7392;52.078;11.650;2023-04-21T04:27:04;4.00;;;2.60;;
14611;SDS011;7392;52.078;11.650;2023-04-21T04:29:32;4.20;;;3.17;;
14611;SDS011;7392;52.078;11.650;2023-04-21T04:32:00;2.93;;;2.73;;
14611;SDS011;7392;52.078;11.650;2023-04-21T04:34:30;3.37;;;3.07;;
14611;SDS011;7392;52.078;11.650;2023-04-21T04:37:02;3.33;;;3.03;;
14611;SDS011;7392;52.078;11.650;2023-04-21T04:39:31;3.33;;;3.00;;
14611;SDS011;7392;52.078;11.650;2023-04-21T04:41:59;3.27;;;2.97;;
14611;SDS011;7392;52.078;11.650;2023-04-21T04:44:28;5.50;;;3.50;;
14611;SDS011;7392;52.078;11.650;2023-04-21T04:46:57;4.00;;;3.03;;
14611;SDS011;7392;52.078;11.650;2023-04-21T04:49:24;3.20;;;2.90;;
14611;SDS011;7392;52.078;11.650;2023-04-21T04:51:53;4.80;;;3.23;;
14611;SDS011;7392;52.078;11.650;2023-04-21T04:54:21;3.33;;;3.03;;
14611;SDS011;7392;52.078;11.650;2023-04-21T04:56:50;3.83;;;3.20;;
14611;SDS011;7392;52.078;11.650;2023-04-21T04:59:17;3.60;;;3.30;;
14611;SDS011;7392;52.078;11.650;2023-04-21T05:01:45;3.90;;;3.60;;
14611;SDS011;7392;52.078;11.650;2023-04-21T05:04:13;3.43;;;3.13;;
14611;SDS011;7392;52.078;11.650;2023-04-21T05:06:42;3.23;;;2.93;;
14611;SDS011;7392;52.078;11.650;2023-04-21T05:09:11;3.77;;;3.40;;
14611;SDS011;7392;52.078;11.650;2023-04-21T05:11:39;4.47;;;3.60;;
14611;SDS011;7392;52.078;11.650;2023-04-21T05:14:06;4.10;;;3.60;;
14611;SDS011;7392;52.078;11.650;2023-04-21T05:16:34;4.30;;;3.90;;
14611;SDS011;7392;52.078;11.650;2023-04-21T05:19:02;3.87;;;3.47;;
14611;SDS011;7392;52.078;11.650;2023-04-21T05:21:30;4.47;;;3.60;;
14611;SDS011;7392;52.078;11.650;2023-04-21T05:23:58;4.03;;;3.63;;
14611;SDS011;7392;52.078;11.650;2023-04-21T05:26:28;4.07;;;3.67;;
14611;SDS011;7392;52.078;11.650;2023-04-21T05:28:56;3.50;;;3.20;;
14611;SDS011;7392;52.078;11.650;2023-04-21T05:31:24;3.87;;;3.33;;
14611;SDS011;7392;52.078;11.650;2023-04-21T05:33:52;6.40;;;4.37;;
14611;SDS011;7392;52.078;11.650;2023-04-21T05:36:20;4.37;;;3.97;;
14611;SDS011;7392;52.078;11.650;2023-04-21T05:38:50;4.13;;;3.67;;
14611;SDS011;7392;52.078;11.650;2023-04-21T05:41:17;5.37;;;4.47;;
14611;SDS011;7392;52.078;11.650;2023-04-21T05:43:48;4.83;;;4.00;;
14611;SDS011;7392;52.078;11.650;2023-04-21T05:46:15;4.93;;;4.43;;
14611;SDS011;7392;52.078;11.650;2023-04-21T05:48:43;5.07;;;4.57;;
14611;SDS011;7392;52.078;11.650;2023-04-21T05:51:11;5.10;;;4.67;;
14611;SDS011;7392;52.078;11.650;2023-04-21T05:53:41;5.50;;;4.93;;
14611;SDS011;7392;52.078;11.650;2023-04-21T05:56:10;5.70;;;4.70;;
14611;SDS011;7392;52.078;11.650;2023-04-21T05:58:41;5.40;;;4.90;;
14611;SDS011;7392;52.078;11.650;2023-04-21T06:01:10;5.10;;;4.60;;
14611;SDS011;7392;52.078;11.650;2023-04-21T06:03:38;5.27;;;4.70;;
14611;SDS011;7392;52.078;11.650;2023-04-21T06:06:06;6.17;;;4.70;;
14611;SDS011;7392;52.078;11.650;2023-04-21T06:08:34;5.93;;;4.67;;
14611;SDS011;7392;52.078;11.650;2023-04-21T06:11:02;6.03;;;4.90;;
14611;SDS011;7392;52.078;11.650;2023-04-21T06:13:29;5.40;;;4.90;;
14611;SDS011;7392;52.078;11.650;2023-04-21T06:15:57;5.90;;;5.37;;
14611;SDS011;7392;52.078;11.650;2023-04-21T06:18:27;5.33;;;4.83;;
14611;SDS011;7392;52.078;11.650;2023-04-21T06:20:54;5.37;;;4.70;;
14611;SDS011;7392;52.078;11.650;2023-04-21T06:23:22;5.60;;;5.10;;
14611;SDS011;7392;52.078;11.650;2023-04-21T06:25:57;7.97;;;5.53;;
14611;SDS011;7392;52.078;11.650;2023-04-21T06:28:26;5.57;;;5.07;;
14611;SDS011;7392;52.078;11.650;2023-04-21T06:30:54;5.93;;;5.33;;
14611;SDS011;7392;52.078;11.650;2023-04-21T06:33:21;6.50;;;5.23;;
14611;SDS011;7392;52.078;11.650;2023-04-21T06:35:51;5.70;;;5.20;;
14611;SDS011;7392;52.078;11.650;2023-04-21T06:38:18;7.03;;;5.90;;
14611;SDS011;7392;52.078;11.650;2023-04-21T06:40:46;5.43;;;4.93;;
14611;SDS011;7392;52.078;11.650;2023-04-21T06:43:14;5.63;;;5.03;;
14611;SDS011;7392;52.078;11.650;2023-04-21T06:45:43;6.00;;;5.40;;
14611;SDS011;7392;52.078;11.650;2023-04-21T06:48:10;6.17;;;5.40;;
14611;SDS011;7392;52.078;11.650;2023-04-21T06:50:38;5.70;;;5.10;;
14611;SDS011;7392;52.078;11.650;2023-04-21T06:53:07;7.20;;;6.40;;
14611;SDS011;7392;52.078;11.650;2023-04-21T06:55:36;9.23;;;7.23;;
14611;SDS011;7392;52.078;11.650;2023-04-21T06:58:03;7.87;;;7.03;;
14611;SDS011;7392;52.078;11.650;2023-04-21T07:00:31;8.43;;;6.47;;
14611;SDS011;7392;52.078;11.650;2023-04-21T07:02:59;8.53;;;6.93;;
14611;SDS011;7392;52.078;11.650;2023-04-21T07:05:27;8.30;;;6.50;;
14611;SDS011;7392;52.078;11.650;2023-04-21T07:07:55;9.60;;;7.63;;
14611;SDS011;7392;52.078;11.650;2023-04-21T07:10:26;8.03;;;7.20;;
14611;SDS011;7392;52.078;11.650;2023-04-21T07:12:54;9.37;;;7.23;;
14611;SDS011;7392;52.078;11.650;2023-04-21T07:15:22;10.80;;;7.40;;
14611;SDS011;7392;52.078;11.650;2023-04-21T07:17:50;9.73;;;7.70;;
14611;SDS011;7392;52.078;11.650;2023-04-21T07:20:18;10.10;;;7.63;;
14611;SDS011;7392;52.078;11.650;2023-04-21T07:22:45;9.13;;;7.33;;
14611;SDS011;7392;52.078;11.650;2023-04-21T07:25:13;9.90;;;7.27;;
14611;SDS011;7392;52.078;11.650;2023-04-21T07:27:42;11.27;;;7.53;;
14611;SDS011;7392;52.078;11.650;2023-04-21T07:30:10;7.70;;;6.90;;
14611;SDS011;7392;52.078;11.650;2023-04-21T07:32:38;6.40;;;5.80;;
14611;SDS011;7392;52.078;11.650;2023-04-21T07:35:06;8.17;;;6.70;;
14611;SDS011;7392;52.078;11.650;2023-04-21T07:37:34;8.20;;;6.63;;
14611;SDS011;7392;52.078;11.650;2023-04-21T07:40:02;8.37;;;6.47;;
14611;SDS011;7392;52.078;11.650;2023-04-21T07:42:30;10.87;;;6.97;;
14611;SDS011;7392;52.078;11.650;2023-04-21T07:44:59;11.10;;;7.37;;
14611;SDS011;7392;52.078;11.650;2023-04-21T07:47:27;7.40;;;6.53;;
14611;SDS011;7392;52.078;11.650;2023-04-21T07:49:55;8.50;;;7.00;;
14611;SDS011;7392;52.078;11.650;2023-04-21T07:52:23;9.80;;;7.13;;
14611;SDS011;7392;52.078;11.650;2023-04-21T07:54:51;10.80;;;7.57;;
14611;SDS011;7392;52.078;11.650;2023-04-21T07:57:19;8.67;;;7.17;;
14611;SDS011;7392;52.078;11.650;2023-04-21T07:59:46;10.00;;;6.97;;
14611;SDS011;7392;52.078;11.650;2023-04-21T08:02:15;9.97;;;7.00;;
14611;SDS011;7392;52.078;11.650;2023-04-21T08:04:43;12.20;;;7.50;;
14611;SDS011;7392;52.078;11.650;2023-04-21T08:07:11;10.40;;;7.17;;
14611;SDS011;7392;52.078;11.650;2023-04-21T08:09:41;8.67;;;6.80;;
14611;SDS011;7392;52.078;11.650;2023-04-21T08:12:08;7.30;;;6.40;;
14611;SDS011;7392;52.078;11.650;2023-04-21T08:14:36;12.83;;;6.90;;
14611;SDS011;7392;52.078;11.650;2023-04-21T08:17:04;7.83;;;6.57;;
14611;SDS011;7392;52.078;11.650;2023-04-21T08:19:33;8.17;;;6.40;;
14611;SDS011;7392;52.078;11.650;2023-04-21T08:22:00;9.63;;;6.43;;
14611;SDS011;7392;52.078;11.650;2023-04-21T08:24:28;8.00;;;6.33;;
14611;SDS011;7392;52.078;11.650;2023-04-21T08:26:56;8.50;;;6.10;;
14611;SDS011;7392;52.078;11.650;2023-04-21T08:29:23;8.70;;;6.27;;
14611;SDS011;7392;52.078;11.650;2023-04-21T08:31:51;9.00;;;6.43;;
14611;SDS011;7392;52.078;11.650;2023-04-21T08:34:19;9.17;;;6.53;;
14611;SDS011;7392;52.078;11.650;2023-04-21T08:36:50;9.33;;;6.83;;
14611;SDS011;7392;52.078;11.650;2023-04-21T08:39:18;7.30;;;5.87;;
14611;SDS011;7392;52.078;11.650;2023-04-21T08:41:46;9.10;;;6.40;;
14611;SDS011;7392;52.078;11.650;2023-04-21T08:44:14;6.77;;;5.53;;
14611;SDS011;7392;52.078;11.650;2023-04-21T08:46:44;8.03;;;6.00;;
14611;SDS011;7392;52.078;11.650;2023-04-21T08:49:11;6.87;;;6.07;;
14611;SDS011;7392;52.078;11.650;2023-04-21T08:51:46;9.60;;;6.23;;
14611;SDS011;7392;52.078;11.650;2023-04-21T08:54:15;9.47;;;5.97;;
14611;SDS011;7392;52.078;11.650;2023-04-21T08:56:43;10.67;;;5.87;;
14611;SDS011;7392;52.078;11.650;2023-04-21T08:59:10;8.67;;;6.27;;
14611;SDS011;7392;52.078;11.650;2023-04-21T09:04:32;6.73;;;5.87;;
14611;SDS011;7392;52.078;11.650;2023-04-21T09:07:00;8.53;;;6.10;;
14611;SDS011;7392;52.078;11.650;2023-04-21T09:09:30;7.23;;;5.50;;
14611;SDS011;7392;52.078;11.650;2023-04-21T09:11:57;8.77;;;5.97;;
14611;SDS011;7392;52.078;11.650;2023-04-21T09:14:28;7.47;;;5.33;;
14611;SDS011;7392;52.078;11.650;2023-04-21T09:16:59;5.83;;;5.20;;
14611;SDS011;7392;52.078;11.650;2023-04-21T09:19:27;6.17;;;4.90;;
14611;SDS011;7392;52.078;11.650;2023-04-21T09:21:55;8.00;;;5.23;;
14611;SDS011;7392;52.078;11.650;2023-04-21T09:24:23;7.67;;;5.60;;
14611;SDS011;7392;52.078;11.650;2023-04-21T09:26:52;7.03;;;5.17;;
14611;SDS011;7392;52.078;11.650;2023-04-21T09:29:21;9.43;;;5.37;;
14611;SDS011;7392;52.078;11.650;2023-04-21T09:31:49;7.40;;;5.30;;
14611;SDS011;7392;52.078;11.650;2023-04-21T09:34:17;6.80;;;5.30;;
14611;SDS011;7392;52.078;11.650;2023-04-21T09:36:46;5.70;;;4.73;;
14611;SDS011;7392;52.078;11.650;2023-04-21T09:39:14;6.77;;;5.17;;
14611;SDS011;7392;52.078;11.650;2023-04-21T09:41:45;6.17;;;4.83;;
14611;SDS011;7392;52.078;11.650;2023-04-21T09:44:14;5.20;;;4.50;;
14611;SDS011;7392;52.078;11.650;2023-04-21T09:46:43;8.97;;;5.40;;
14611;SDS011;7392;52.078;11.650;2023-04-21T09:49:14;5.77;;;4.90;;
14611;SDS011;7392;52.078;11.650;2023-04-21T09:51:43;6.63;;;4.27;;
14611;SDS011;7392;52.078;11.650;2023-04-21T09:54:15;7.53;;;5.77;;
14611;SDS011;7392;52.078;11.650;2023-04-21T09:56:55;6.83;;;4.67;;
14611;SDS011;7392;52.078;11.650;2023-04-21T09:59:31;4.93;;;4.43;;
14611;SDS011;7392;52.078;11.650;2023-04-21T10:02:02;5.30;;;4.80;;
14611;SDS011;7392;52.078;11.650;2023-04-21T10:04:32;8.00;;;5.30;;
14611;SDS011;7392;52.078;11.650;2023-04-21T10:07:02;6.57;;;5.30;;
14611;SDS011;7392;52.078;11.650;2023-04-21T10:09:32;7.17;;;4.87;;
14611;SDS011;7392;52.078;11.650;2023-04-21T10:12:05;5.33;;;4.43;;
14611;SDS011;7392;52.078;11.650;2023-04-21T10:14:36;6.33;;;4.43;;
14611;SDS011;7392;52.078;11.650;2023-04-21T10:17:04;5.93;;;4.63;;
14611;SDS011;7392;52.078;11.650;2023-04-21T10:19:33;5.27;;;4.30;;
14611;SDS011;7392;52.078;11.650;2023-04-21T10:22:05;6.67;;;4.33;;
14611;SDS011;7392;52.078;11.650;2023-04-21T10:24:36;6.53;;;4.60;;
14611;SDS011;7392;52.078;11.650;2023-04-21T10:27:06;7.60;;;4.80;;
14611;SDS011;7392;52.078;11.650;2023-04-21T10:29:37;11.03;;;4.57;;
14611;SDS011;7392;52.078;11.650;2023-04-21T10:32:40;6.37;;;4.43;;
14611;SDS011;7392;52.078;11.650;2023-04-21T10:35:10;7.27;;;4.83;;
14611;SDS011;7392;52.078;11.650;2023-04-21T10:37:40;5.47;;;4.70;;
14611;SDS011;7392;52.078;11.650;2023-04-21T10:49:20;5.90;;;4.90;;
14611;SDS011;7392;52.078;11.650;2023-04-21T10:52:02;5.73;;;4.43;;
14611;SDS011;7392;52.078;11.650;2023-04-21T10:54:40;8.07;;;4.70;;
14611;SDS011;7392;52.078;11.650;2023-04-21T10:57:11;7.87;;;4.80;;
14611;SDS011;7392;52.078;11.650;2023-04-21T10:59:40;6.20;;;4.70;;
14611;SDS011;7392;52.078;11.650;2023-04-21T11:02:11;7.43;;;4.83;;
14611;SDS011;7392;52.078;11.650;2023-04-21T11:04:41;6.23;;;4.60;;
14611;SDS011;7392;52.078;11.650;2023-04-21T11:07:14;6.53;;;4.47;;
14611;SDS011;7392;52.078;11.650;2023-04-21T11:09:44;5.83;;;4.50;;
14611;SDS011;7392;52.078;11.650;2023-04-21T11:12:14;6.10;;;4.30;;
14611;SDS011;7392;52.078;11.650;2023-04-21T11:14:43;7.27;;;4.33;;
14611;SDS011;7392;52.078;11.650;2023-04-21T11:17:15;6.70;;;4.03;;
14611;SDS011;7392;52.078;11.650;2023-04-21T11:19:44;8.60;;;4.00;;
14611;SDS011;7392;52.078;11.650;2023-04-21T11:22:12;6.07;;;4.20;;
14611;SDS011;7392;52.078;11.650;2023-04-21T11:24:42;9.87;;;4.17;;
14611;SDS011;7392;52.078;11.650;2023-04-21T11:27:10;7.33;;;4.33;;
14611;SDS011;7392;52.078;11.650;2023-04-21T11:29:39;5.10;;;3.73;;
14611;SDS011;7392;52.078;11.650;2023-04-21T11:32:07;4.93;;;3.70;;
14611;SDS011;7392;52.078;11.650;2023-04-21T11:34:37;7.00;;;4.10;;
14611;SDS011;7392;52.078;11.650;2023-04-21T11:37:05;7.60;;;4.03;;
14611;SDS011;7392;52.078;11.650;2023-04-21T11:39:33;6.23;;;4.23;;
14611;SDS011;7392;52.078;11.650;2023-04-21T11:42:01;7.07;;;4.30;;
14611;SDS011;7392;52.078;11.650;2023-04-21T11:44:30;6.80;;;4.20;;
14611;SDS011;7392;52.078;11.650;2023-04-21T11:46:59;5.07;;;3.60;;
14611;SDS011;7392;52.078;11.650;2023-04-21T11:49:27;5.50;;;3.30;;
14611;SDS011;7392;52.078;11.650;2023-04-21T11:51:57;5.00;;;3.73;;
14611;SDS011;7392;52.078;11.650;2023-04-21T11:54:24;4.93;;;3.57;;
14611;SDS011;7392;52.078;11.650;2023-04-21T11:56:55;6.03;;;4.20;;
14611;SDS011;7392;52.078;11.650;2023-04-21T11:59:25;4.60;;;3.80;;
14611;SDS011;7392;52.078;11.650;2023-04-21T12:01:54;5.20;;;3.77;;
14611;SDS011;7392;52.078;11.650;2023-04-21T12:04:22;5.50;;;3.93;;
14611;SDS011;7392;52.078;11.650;2023-04-21T12:06:57;6.13;;;3.97;;
14611;SDS011;7392;52.078;11.650;2023-04-21T12:09:26;4.37;;;3.87;;
14611;SDS011;7392;52.078;11.650;2023-04-21T12:11:55;6.30;;;4.00;;
14611;SDS011;7392;52.078;11.650;2023-04-21T12:14:24;4.83;;;3.70;;
14611;SDS011;7392;52.078;11.650;2023-04-21T12:16:53;5.03;;;3.63;;
14611;SDS011;7392;52.078;11.650;2023-04-21T12:19:22;4.67;;;3.60;;
14611;SDS011;7392;52.078;11.650;2023-04-21T12:21:52;5.53;;;3.57;;
14611;SDS011;7392;52.078;11.650;2023-04-21T12:24:22;5.57;;;3.70;;
14611;SDS011;7392;52.078;11.650;2023-04-21T12:26:50;3.40;;;3.07;;
14611;SDS011;7392;52.078;11.650;2023-04-21T12:29:18;5.90;;;4.07;;
14611;SDS011;7392;52.078;11.650;2023-04-21T12:31:45;4.43;;;3.67;;
14611;SDS011;7392;52.078;11.650;2023-04-21T12:34:13;5.67;;;3.77;;
14611;SDS011;7392;52.078;11.650;2023-04-21T12:36:41;4.97;;;3.73;;
14611;SDS011;7392;52.078;11.650;2023-04-21T12:39:09;6.37;;;3.80;;
14611;SDS011;7392;52.078;11.650;2023-04-21T12:41:38;6.07;;;4.27;;
14611;SDS011;7392;52.078;11.650;2023-04-21T12:44:06;6.50;;;4.17;;
14611;SDS011;7392;52.078;11.650;2023-04-21T12:46:33;5.83;;;4.20;;
14611;SDS011;7392;52.078;11.650;2023-04-21T12:49:01;6.43;;;4.30;;
14611;SDS011;7392;52.078;11.650;2023-04-21T12:51:31;7.13;;;4.07;;
14611;SDS011;7392;52.078;11.650;2023-04-21T12:53:59;6.30;;;3.80;;
14611;SDS011;7392;52.078;11.650;2023-04-21T12:56:27;4.27;;;3.77;;
14611;SDS011;7392;52.078;11.650;2023-04-21T12:58:58;4.80;;;3.80;;
14611;SDS011;7392;52.078;11.650;2023-04-21T13:01:26;5.80;;;3.73;;
14611;SDS011;7392;52.078;11.650;2023-04-21T13:03:53;7.17;;;4.00;;
14611;SDS011;7392;52.078;11.650;2023-04-21T13:06:21;4.10;;;3.67;;
14611;SDS011;7392;52.078;11.650;2023-04-21T13:08:49;5.73;;;3.47;;
14611;SDS011;7392;52.078;11.650;2023-04-21T13:11:17;5.40;;;3.83;;
14611;SDS011;7392;52.078;11.650;2023-04-21T13:13:44;4.53;;;3.57;;
14611;SDS011;7392;52.078;11.650;2023-04-21T13:16:13;7.10;;;3.80;;
14611;SDS011;7392;52.078;11.650;2023-04-21T13:18:43;6.60;;;3.80;;
14611;SDS011;7392;52.078;11.650;2023-04-21T13:21:11;6.37;;;4.10;;
14611;SDS011;7392;52.078;11.650;2023-04-21T13:23:39;5.43;;;3.77;;
14611;SDS011;7392;52.078;11.650;2023-04-21T13:26:07;5.87;;;3.97;;
14611;SDS011;7392;52.078;11.650;2023-04-21T13:28:35;5.87;;;4.13;;
14611;SDS011;7392;52.078;11.650;2023-04-21T13:31:03;8.17;;;4.10;;
14611;SDS011;7392;52.078;11.650;2023-04-21T13:33:33;6.30;;;3.70;;
14611;SDS011;7392;52.078;11.650;2023-04-21T13:36:01;6.30;;;4.00;;
14611;SDS011;7392;52.078;11.650;2023-04-21T13:38:30;4.60;;;3.57;;
14611;SDS011;7392;52.078;11.650;2023-04-21T13:40:58;4.30;;;3.87;;
14611;SDS011;7392;52.078;11.650;2023-04-21T13:43:26;7.37;;;3.73;;
14611;SDS011;7392;52.078;11.650;2023-04-21T13:45:54;6.67;;;3.53;;
14611;SDS011;7392;52.078;11.650;2023-04-21T13:48:23;4.53;;;4.00;;
14611;SDS011;7392;52.078;11.650;2023-04-21T13:50:53;8.47;;;4.60;;
14611;SDS011;7392;52.078;11.650;2023-04-21T13:53:21;8.70;;;4.40;;
14611;SDS011;7392;52.078;11.650;2023-04-21T13:55:48;5.30;;;3.90;;
14611;SDS011;7392;52.078;11.650;2023-04-21T13:58:18;5.80;;;4.00;;
14611;SDS011;7392;52.078;11.650;2023-04-21T14:00:46;5.80;;;3.27;;
14611;SDS011;7392;52.078;11.650;2023-04-21T14:03:24;4.80;;;3.90;;
14611;SDS011;7392;52.078;11.650;2023-04-21T14:05:56;4.40;;;4.00;;
14611;SDS011;7392;52.078;11.650;2023-04-21T14:08:24;7.40;;;3.77;;
14611;SDS011;7392;52.078;11.650;2023-04-21T14:10:52;8.67;;;4.37;;
14611;SDS011;7392;52.078;11.650;2023-04-21T14:13:20;7.30;;;3.60;;
14611;SDS011;7392;52.078;11.650;2023-04-21T14:16:05;7.73;;;3.87;;
14611;SDS011;7392;52.078;11.650;2023-04-21T14:18:33;4.73;;;3.80;;
14611;SDS011;7392;52.078;11.650;2023-04-21T14:21:04;4.97;;;3.73;;
14611;SDS011;7392;52.078;11.650;2023-04-21T14:23:32;7.27;;;4.23;;
14611;SDS011;7392;52.078;11.650;2023-04-21T14:26:00;6.50;;;4.03;;
14611;SDS011;7392;52.078;11.650;2023-04-21T14:28:28;4.67;;;3.77;;
14611;SDS011;7392;52.078;11.650;2023-04-21T14:30:56;5.30;;;3.87;;
14611;SDS011;7392;52.078;11.650;2023-04-21T14:33:25;10.80;;;4.07;;
14611;SDS011;7392;52.078;11.650;2023-04-21T14:35:55;4.63;;;3.40;;
14611;SDS011;7392;52.078;11.650;2023-04-21T14:38:24;4.77;;;3.50;;
14611;SDS011;7392;52.078;11.650;2023-04-21T14:40:52;7.07;;;4.30;;
14611;SDS011;7392;52.078;11.650;2023-04-21T14:43:21;5.63;;;3.90;;
14611;SDS011;7392;52.078;11.650;2023-04-21T14:45:49;7.10;;;4.20;;
14611;SDS011;7392;52.078;11.650;2023-04-21T14:48:17;6.37;;;4.13;;
14611;SDS011;7392;52.078;11.650;2023-04-21T14:50:45;6.93;;;4.20;;
14611;SDS011;7392;52.078;11.650;2023-04-21T14:53:12;6.73;;;4.80;;
14611;SDS011;7392;52.078;11.650;2023-04-21T14:55:41;5.20;;;3.97;;
14611;SDS011;7392;52.078;11.650;2023-04-21T14:58:09;7.43;;;4.27;;
14611;SDS011;7392;52.078;11.650;2023-04-21T15:00:37;4.67;;;3.97;;
14611;SDS011;7392;52.078;11.650;2023-04-21T15:03:05;5.47;;;3.70;;
14611;SDS011;7392;52.078;11.650;2023-04-21T15:05:33;4.80;;;4.20;;
14611;SDS011;7392;52.078;11.650;2023-04-21T15:08:02;4.73;;;3.90;;
14611;SDS011;7392;52.078;11.650;2023-04-21T15:10:30;4.83;;;3.80;;